Nearby METAR Reports

 

KLOT - Romeoville/Chi, Illinois, USA
Distance from station: N 3mi, 5km
Updated: Sat, 17-Nov-2018 11:15am CST
Light Snow
Light Snow
 Wind from NNE
Wind: NNE 7 mph , 11 km/h
Temperature: 34°F , 1°C
Wind Chill: 28°F , -2°C
Dew Point: 32°F , 0°C
Humidity: 93%
Barometer: 30.30 inHg , 1026.1 hPa
Summary: Light Snow
Visibility: 2 miles , 3 km
2018/11/17 17:15 KLOT 171715Z AUTO 02006KT 2SM -SN 01/00 A3030 RMK AO2 T00050001
KJOT - Joliet, Illinois, USA
Distance from station: WSW 5mi, 7km
Updated: Sat, 17-Nov-2018 11:15am CST
Light rain, Overcast
Light rain, Overcast
 Wind from NNE
Wind: NNE 6 mph , 9 km/h
Temperature: 36°F , 2°C
Wind Chill: 31°F , -1°C
Dew Point: 36°F , 2°C
Humidity: 100%
Barometer: 30.31 inHg , 1026.4 hPa
Summary: Light rain
Clouds: Overcast
Visibility: 3 miles , 5 km
Cloud details: Overcast 500 ft
2018/11/17 17:15 KJOT 171715Z AUTO 02005KT 3SM -RA OVC005 02/02 A3031 RMK AO2 T00170015
 
KC09 - Morris-Washburn, Illinois, USA
Distance from station: WSW 18mi, 29km
Updated: Sat, 17-Nov-2018 11:15am CST
Light rain, Overcast
Light rain, Overcast
 Wind from NNE
Wind: NNE 6 mph , 9 km/h
Temperature: 34°F , 1°C
Wind Chill: 29°F , -2°C
Dew Point: 34°F , 1°C
Humidity: 100%
Barometer: 30.30 inHg , 1026.1 hPa
Summary: Light rain
Clouds: Overcast
Visibility: 3 miles , 5 km
Cloud details: Overcast 500 ft
2018/11/17 17:15 KC09 171715Z AUTO 02005KT 3SM -RA OVC005 01/01 A3030 RMK AO2 T00120009
KARR - Chicago/Aurora, Illinois, USA
Distance from station: NW 24mi, 39km
Updated: Sat, 17-Nov-2018 11:33am CST
Light snow, Mist, Overcast
Light snow, Mist, Overcast
 Wind from N
Wind: N 8 mph , 13 km/h
Temperature: 34°F , 1°C
Wind Chill: 27°F , -3°C
Dew Point: 30°F , -1°C
Humidity: 87%
Barometer: 30.30 inHg , 1026.1 hPa
Summary: Light snow, Mist
Clouds: Overcast
Visibility: 1 mile , 2 km
Cloud details: Partly cloudy 500 ft
Overcast 1400 ft
2018/11/17 17:33 KARR 171733Z 01007KT 1SM -SN BR SCT005 OVC014 01/M01 A3030 RMK AO2 P0001 T00061006
 
KMDW - Chicago, Illinois, USA
Distance from station: NE 25mi, 39km
Updated: Sat, 17-Nov-2018 10:53am CST
Light snow, Mist, Overcast
Light snow, Mist, Overcast
 Wind from N
Wind: N 7 mph , 11 km/h
Temperature: 34°F , 1°C
Wind Chill: 28°F , -2°C
Dew Point: 30°F , -1°C
Humidity: 87%
Barometer: 30.31 inHg , 1026.4 hPa
Summary: Light snow, Mist
Clouds: Overcast
Visibility: 1 3/4 miles , 2.8 km
Cloud details: Overcast 600 ft
2018/11/17 16:53 KMDW 171653Z 36006KT 1 3/4SM -SN BR OVC006 01/M01 A3031 RMK AO2 SLP273 P0001 T00111006
KDPA - Chicago/Dupage, Illinois, USA
Distance from station: NNW 26mi, 42km
Updated: Sat, 17-Nov-2018 11:34am CST
Snow, Fog, Overcast
Snow, Fog, Overcast
 Wind from NNE
Wind: NNE 10 mph , 17 km/h
Temperature: 32°F , 0°C
Wind Chill: 24°F , -4°C
Dew Point: 30°F , -1°C
Humidity: 93%
Barometer: 30.30 inHg , 1026.1 hPa
Summary: Snow, Fog
Clouds: Overcast
Visibility: 1/2 mile , 0.8 km
Cloud details: Partly cloudy 600 ft
Overcast 1600 ft
2018/11/17 17:34 KDPA 171734Z 02009KT 1/2SM R02L/5500FT SN FG SCT006 OVC016 00/M01 A3030 RMK AO2 P0001 T00001011
 
KIGQ - Chicago/Lansing, Illinois, USA
Distance from station: E 30mi, 48km
Updated: Sat, 17-Nov-2018 11:35am CST
Light rain, Overcast
Light rain, Overcast
 Wind from N
Wind: N 3 mph , 6 km/h
Temperature: 36°F , 2°C
Dew Point: 34°F , 1°C
Humidity: 93%
Barometer: 30.30 inHg , 1026.1 hPa
Summary: Light rain
Clouds: Overcast
Visibility: 4 miles , 6 km
Cloud details: Mostly cloudy 600 ft
Overcast 1200 ft
2018/11/17 17:35 KIGQ 171735Z AUTO 36003KT 4SM -RA BKN006 OVC012 02/01 A3030 RMK AO2 T00160005
KORD - Chicago O'hare, Illinois, USA
Distance from station: NNE 31mi, 50km
Updated: Sat, 17-Nov-2018 11:23am CST
Light snow, Mist, Overcast
Light snow, Mist, Overcast
 Wind from N
Wind: N 8 mph , 13 km/h
Temperature: 32°F , 0°C
Wind Chill: 25°F , -4°C
Dew Point: 30°F , -1°C
Humidity: 93%
Barometer: 30.30 inHg , 1026.1 hPa
Summary: Light snow, Mist
Clouds: Overcast
Visibility: 3/4 mile , 1.2 km
Cloud details: Partly cloudy 500 ft
Overcast 1400 ft
2018/11/17 17:23 KORD 171723Z 36007KT 3/4SM R10L/4000VP6000FT -SN BR SCT005 OVC014 00/M01 A3030 RMK AO2 P0001 T00001006 $
 
KGYY - Gary Regional, Indiana, USA
Distance from station: E 36mi, 58km
Updated: Sat, 17-Nov-2018 10:45am CST
Light snow, Mist, Overcast
Light snow, Mist, Overcast
 Wind from calm
Wind: Calm
Temperature: 36°F , 2°C
Dew Point: 36°F , 2°C
Humidity: 100%
Barometer: 30.31 inHg , 1026.4 hPa
Summary: Light snow, Mist
Clouds: Overcast
Visibility: 2 miles , 3 km
Cloud details: Overcast 700 ft
2018/11/17 16:45 KGYY 171645Z 00000KT 2SM -SN BR OVC007 02/02 A3031
KIKK - Kankakee, Illinois, USA
Distance from station: SSE 36mi, 58km
Updated: Sat, 17-Nov-2018 11:15am CST
Overcast
Overcast
 Wind from calm
Wind: Calm
Temperature: 37°F , 3°C
Dew Point: 32°F , 0°C
Humidity: 81%
Barometer: 30.29 inHg , 1025.7 hPa
Clouds: Overcast
Visibility: 10 miles , 16 km
Cloud details: Mostly cloudy 1100 ft
Mostly cloudy 4100 ft
Overcast 6000 ft
2018/11/17 17:15 KIKK 171715Z AUTO 00000KT 10SM BKN011 BKN041 OVC060 03/00 A3029 RMK AO2 T00300000
 
KDKB - De Kalb, Illinois, USA
Distance from station: NW 40mi, 65km
Updated: Sat, 17-Nov-2018 11:15am CST
Light snow, Overcast
Light snow, Overcast
 Wind from N
Wind: N 7 mph , 11 km/h
Temperature: 32°F , 0°C
Wind Chill: 25°F , -4°C
Dew Point: 30°F , -1°C
Humidity: 93%
Barometer: 30.31 inHg , 1026.4 hPa
Summary: Light Snow
Clouds: Overcast
Visibility: 3 miles , 5 km
Cloud details: Overcast 500 ft
2018/11/17 17:15 KDKB 171715Z AUTO 01006KT 3SM -SN OVC005 00/M01 A3031 RMK AO2 T10011007
KPWK - Palwaukee, Illinois, USA
Distance from station: NNE 41mi, 65km
Updated: Sat, 17-Nov-2018 11:32am CST
Light snow, Mist, Overcast
Light snow, Mist, Overcast
 Wind from NNW
Wind: NNW 6 mph , 9 km/h
Temperature: 34°F , 1°C
Wind Chill: 29°F , -2°C
Dew Point: 30°F , -1°C
Humidity: 87%
Barometer: 30.32 inHg , 1026.8 hPa
Summary: Light snow, Mist
Clouds: Overcast
Visibility: 1 mile , 2 km
Cloud details: Overcast 600 ft
2018/11/17 17:32 KPWK 171732Z 34005KT 1SM -SN BR OVC006 01/M01 A3032 RMK AO2 P0001 T00061011